createdAt,value
2023-05-14T00:01:32.235Z,15.43
2023-05-14T00:03:58.808Z,13.98
2023-05-14T00:06:25.384Z,14.55
2023-05-14T00:08:51.658Z,15.07
2023-05-14T00:11:18.004Z,14.32
2023-05-14T00:13:44.393Z,14.77
2023-05-14T00:16:11.410Z,15.73
2023-05-14T00:18:37.844Z,14.93
2023-05-14T00:21:04.257Z,14.98
2023-05-14T00:23:30.639Z,15.85
2023-05-14T00:25:57.028Z,14.93
2023-05-14T00:28:23.341Z,13.85
2023-05-14T00:30:49.676Z,14.90
2023-05-14T00:33:16.201Z,14.35
2023-05-14T00:35:42.938Z,13.43
2023-05-14T00:38:09.735Z,14.98
2023-05-14T00:40:36.193Z,13.60
2023-05-14T00:43:03.726Z,14.82
2023-05-14T00:45:30.245Z,14.18
2023-05-14T00:47:56.662Z,14.15
2023-05-14T00:50:23.210Z,14.10
2023-05-14T00:52:50.557Z,13.90
2023-05-14T00:55:17.192Z,13.77
2023-05-14T00:57:43.816Z,14.63
2023-05-14T01:00:10.796Z,14.35
2023-05-14T01:02:37.717Z,13.43
2023-05-14T01:05:04.303Z,14.43
2023-05-14T01:07:39.362Z,14.00
2023-05-14T01:10:11.676Z,14.50
2023-05-14T01:12:40.762Z,13.30
2023-05-14T01:15:36.588Z,13.95
2023-05-14T01:18:10.244Z,13.82
2023-05-14T01:20:37.079Z,15.30
2023-05-14T01:23:03.963Z,13.38
2023-05-14T01:25:30.982Z,14.88
2023-05-14T01:27:57.365Z,14.48
2023-05-14T01:30:29.916Z,14.32
2023-05-14T01:35:25.185Z,15.40
2023-05-14T01:37:52.436Z,13.98
2023-05-14T01:40:19.971Z,15.20
2023-05-14T01:42:46.417Z,15.15
2023-05-14T01:45:12.861Z,14.70
2023-05-14T01:47:39.529Z,14.55
2023-05-14T01:50:06.483Z,15.75
2023-05-14T01:52:33.779Z,15.98
2023-05-14T01:55:00.255Z,15.20
2023-05-14T01:57:26.684Z,14.80
2023-05-14T01:59:53.262Z,15.73
2023-05-14T02:02:19.930Z,15.25
2023-05-14T02:04:46.554Z,15.02
2023-05-14T02:07:13.089Z,14.48
2023-05-14T02:09:40.169Z,14.85
2023-05-14T02:12:07.480Z,15.20
2023-05-14T02:14:33.879Z,15.40
2023-05-14T02:17:00.205Z,15.85
2023-05-14T02:19:26.622Z,15.80
2023-05-14T02:21:53.056Z,16.15
2023-05-14T02:24:19.365Z,14.70
2023-05-14T02:26:45.758Z,16.13
2023-05-14T02:29:12.179Z,16.02
2023-05-14T02:31:38.773Z,16.20
2023-05-14T02:34:06.545Z,16.27
2023-05-14T02:36:33.271Z,14.35
2023-05-14T02:39:00.131Z,17.42
2023-05-14T02:41:26.605Z,15.75
2023-05-14T02:43:53.596Z,15.50
2023-05-14T02:46:20.939Z,15.82
2023-05-14T02:48:47.313Z,16.60
2023-05-14T02:51:13.624Z,15.52
2023-05-14T02:53:40.169Z,16.08
2023-05-14T02:56:06.723Z,16.17
2023-05-14T02:58:33.080Z,17.08
2023-05-14T03:00:59.626Z,14.57
2023-05-14T03:03:26.616Z,16.67
2023-05-14T03:05:53.375Z,16.80
2023-05-14T03:08:19.802Z,16.27
2023-05-14T03:10:46.166Z,16.33
2023-05-14T03:13:12.550Z,16.42
2023-05-14T03:15:38.888Z,16.10
2023-05-14T03:18:06.698Z,16.63
2023-05-14T03:20:33.132Z,17.15
2023-05-14T03:22:59.592Z,15.43
2023-05-14T03:25:25.959Z,17.27
2023-05-14T03:27:52.338Z,17.00
2023-05-14T03:30:18.776Z,16.52
2023-05-14T03:32:45.397Z,17.27
2023-05-14T03:35:11.775Z,16.75
2023-05-14T03:37:38.098Z,16.67
2023-05-14T03:40:04.832Z,16.63
2023-05-14T03:42:31.225Z,17.58
2023-05-14T03:44:57.677Z,16.45
2023-05-14T03:47:24.094Z,17.33
2023-05-14T03:49:51.132Z,17.13
2023-05-14T03:52:17.469Z,16.13
2023-05-14T03:54:44.471Z,15.60
2023-05-14T03:57:11.004Z,16.17
2023-05-14T03:59:37.336Z,16.02
2023-05-14T04:02:03.803Z,16.15
2023-05-14T04:04:30.278Z,16.02
2023-05-14T04:06:56.692Z,15.70
2023-05-14T04:09:23.510Z,16.27
2023-05-14T04:11:51.137Z,15.48
2023-05-14T04:14:17.529Z,15.55
2023-05-14T04:16:44.825Z,16.48
2023-05-14T04:19:11.329Z,15.15
2023-05-14T04:21:37.767Z,15.50
2023-05-14T04:24:04.200Z,14.90
2023-05-14T04:26:30.541Z,14.52
2023-05-14T04:28:56.994Z,13.82
2023-05-14T04:31:23.444Z,15.02
2023-05-14T04:33:49.861Z,13.55
2023-05-14T04:36:16.298Z,15.32
2023-05-14T04:38:42.612Z,13.90
2023-05-14T04:41:08.978Z,13.43
2023-05-14T04:43:35.458Z,13.32
2023-05-14T04:46:02.094Z,13.73
2023-05-14T04:48:28.560Z,12.65
2023-05-14T04:50:54.894Z,13.40
2023-05-14T04:53:21.293Z,13.30
2023-05-14T04:55:47.626Z,12.98
2023-05-14T04:58:13.980Z,13.10
2023-05-14T05:00:40.817Z,13.00
2023-05-14T05:03:07.693Z,11.88
2023-05-14T05:05:35.160Z,12.65
2023-05-14T05:08:01.479Z,12.82
2023-05-14T05:10:27.838Z,12.25
2023-05-14T05:12:54.188Z,11.95
2023-05-14T05:15:20.540Z,12.98
2023-05-14T05:17:46.908Z,13.13
2023-05-14T05:20:13.743Z,12.85
2023-05-14T05:22:40.133Z,11.50
2023-05-14T05:25:07.988Z,13.13
2023-05-14T05:27:34.339Z,11.38
2023-05-14T05:30:04.043Z,12.52
2023-05-14T05:32:30.658Z,10.30
2023-05-14T05:34:57.174Z,11.93
2023-05-14T05:37:23.561Z,11.82
2023-05-14T05:39:49.930Z,11.50
2023-05-14T05:42:16.396Z,11.60
2023-05-14T05:44:42.769Z,12.10
2023-05-14T05:47:09.126Z,10.68
2023-05-14T05:49:36.835Z,11.13
2023-05-14T05:52:03.998Z,11.32
2023-05-14T05:54:32.116Z,11.63
2023-05-14T05:56:58.918Z,11.65
2023-05-14T05:59:25.472Z,11.70
2023-05-14T06:01:51.830Z,11.07
2023-05-14T06:04:18.273Z,11.52
2023-05-14T06:06:44.609Z,11.07
2023-05-14T06:09:10.989Z,9.60
2023-05-14T06:11:37.335Z,10.77
2023-05-14T06:14:03.695Z,10.35
2023-05-14T06:16:30.153Z,10.20
2023-05-14T06:18:56.528Z,9.73
2023-05-14T06:21:22.994Z,9.80
2023-05-14T06:23:49.323Z,9.80
2023-05-14T06:26:15.847Z,10.65
2023-05-14T06:28:42.211Z,10.20
2023-05-14T06:31:08.643Z,8.75
2023-05-14T06:33:35.043Z,9.32
2023-05-14T06:36:03.960Z,9.43
2023-05-14T06:38:30.440Z,9.00
2023-05-14T06:40:56.828Z,10.23
2023-05-14T06:43:23.180Z,8.82
2023-05-14T06:45:49.943Z,7.78
2023-05-14T06:48:18.789Z,8.63
2023-05-14T06:50:45.724Z,8.50
2023-05-14T06:53:12.356Z,8.75
2023-05-14T06:55:38.694Z,7.65
2023-05-14T06:58:08.104Z,8.13
2023-05-14T07:00:34.536Z,7.68
2023-05-14T07:03:00.980Z,7.50
2023-05-14T07:05:27.464Z,7.15
2023-05-14T07:07:53.874Z,7.07
2023-05-14T07:10:20.721Z,8.27
2023-05-14T07:12:47.118Z,6.93
2023-05-14T07:15:13.508Z,7.03
2023-05-14T07:17:39.888Z,7.30
2023-05-14T07:20:06.706Z,6.80
2023-05-14T07:22:33.133Z,7.57
2023-05-14T07:24:59.517Z,7.00
2023-05-14T07:27:25.869Z,7.53
2023-05-14T07:29:52.305Z,6.95
2023-05-14T07:32:18.610Z,7.40
2023-05-14T07:34:44.913Z,6.30
2023-05-14T07:37:11.266Z,7.82
2023-05-14T07:39:37.655Z,6.72
2023-05-14T07:42:04.497Z,7.07
2023-05-14T07:44:30.813Z,6.75
2023-05-14T07:46:57.146Z,7.30
2023-05-14T07:49:23.495Z,7.10
2023-05-14T07:51:49.866Z,6.47
2023-05-14T07:54:16.674Z,6.78
2023-05-14T07:56:43.029Z,6.57
2023-05-14T07:59:09.398Z,6.43
2023-05-14T08:01:36.732Z,7.07
2023-05-14T08:04:04.990Z,8.02
2023-05-14T08:06:31.399Z,7.40
2023-05-14T08:08:57.837Z,8.07
2023-05-14T08:11:24.299Z,7.18
2023-05-14T08:13:50.693Z,7.85
2023-05-14T08:16:19.760Z,7.15
2023-05-14T08:18:47.194Z,7.25
2023-05-14T08:21:13.635Z,7.32
2023-05-14T08:23:39.940Z,6.63
2023-05-14T08:26:06.257Z,7.22
2023-05-14T08:28:32.673Z,6.80
2023-05-14T08:30:59.060Z,5.85
2023-05-14T08:33:25.522Z,5.82
2023-05-14T08:35:52.988Z,6.43
2023-05-14T08:38:19.403Z,5.45
2023-05-14T08:40:56.208Z,6.10
2023-05-14T08:43:25.776Z,5.93
2023-05-14T08:46:00.580Z,5.68
2023-05-14T08:48:29.050Z,5.63
2023-05-14T08:50:55.605Z,5.45
2023-05-14T08:53:22.020Z,5.80
2023-05-14T08:55:50.706Z,5.07
2023-05-14T08:58:17.136Z,5.13
2023-05-14T09:00:43.532Z,4.75
2023-05-14T09:03:10.173Z,5.15
2023-05-14T09:05:37.092Z,4.93
2023-05-14T09:08:03.507Z,5.05
2023-05-14T09:10:29.918Z,5.47
2023-05-14T09:12:56.262Z,5.82
2023-05-14T09:15:23.476Z,5.68
2023-05-14T09:17:49.920Z,5.20
2023-05-14T09:20:16.606Z,5.85
2023-05-14T09:22:43.006Z,5.15
2023-05-14T09:25:11.925Z,5.78
2023-05-14T09:27:38.648Z,4.78
2023-05-14T09:30:05.888Z,5.65
2023-05-14T09:32:35.681Z,5.70
2023-05-14T09:35:09.611Z,5.60
2023-05-14T09:37:36.660Z,5.68
2023-05-14T09:40:10.660Z,5.90
2023-05-14T09:42:37.005Z,5.82
2023-05-14T09:45:04.965Z,5.68
2023-05-14T09:47:32.719Z,6.18
2023-05-14T09:49:59.298Z,5.38
2023-05-14T09:52:26.164Z,5.10
2023-05-14T09:54:53.099Z,5.65
2023-05-14T09:57:20.009Z,5.22
2023-05-14T09:59:46.720Z,4.97
2023-05-14T10:02:16.514Z,5.22
2023-05-14T10:04:43.574Z,6.00
2023-05-14T10:07:10.034Z,4.72
2023-05-14T10:09:38.377Z,5.05
2023-05-14T10:12:05.042Z,4.88
2023-05-14T10:14:38.879Z,5.50
2023-05-14T10:17:05.937Z,4.80
2023-05-14T10:19:33.459Z,5.63
2023-05-14T10:22:04.069Z,5.80
2023-05-14T10:24:30.904Z,5.03
2023-05-14T10:26:58.617Z,5.07
2023-05-14T10:29:34.836Z,4.68
2023-05-14T10:32:04.106Z,4.80
2023-05-14T10:34:30.363Z,4.65
2023-05-14T10:37:00.864Z,5.13
2023-05-14T10:39:40.251Z,4.93
2023-05-14T10:42:07.037Z,5.30
2023-05-14T10:44:35.072Z,5.40
2023-05-14T10:47:02.212Z,5.28
2023-05-14T10:49:42.370Z,5.07
2023-05-14T10:52:11.023Z,5.25
2023-05-14T10:54:37.662Z,4.75
2023-05-14T10:57:04.079Z,4.68
2023-05-14T10:59:33.474Z,4.82
2023-05-14T11:02:00.893Z,4.60
2023-05-14T11:04:27.596Z,4.43
2023-05-14T11:06:55.366Z,4.97
2023-05-14T11:09:22.612Z,4.85
2023-05-14T11:11:49.122Z,5.00
2023-05-14T11:14:15.608Z,5.60
2023-05-14T11:16:42.535Z,5.82
2023-05-14T11:19:10.888Z,5.93
2023-05-14T11:21:37.353Z,5.03
2023-05-14T11:24:05.313Z,5.25
2023-05-14T11:26:31.869Z,4.18
2023-05-14T11:28:58.210Z,5.10
2023-05-14T11:31:25.339Z,4.97
2023-05-14T11:33:52.066Z,5.75
2023-05-14T11:36:20.673Z,4.55
2023-05-14T11:38:48.749Z,5.90
2023-05-14T11:41:15.989Z,5.05
2023-05-14T11:43:42.660Z,5.45
2023-05-14T11:46:15.889Z,5.35
2023-05-14T11:48:42.254Z,5.30
2023-05-14T11:51:08.639Z,5.22
2023-05-14T11:53:35.098Z,5.45
2023-05-14T11:56:03.054Z,5.28
2023-05-14T11:58:32.215Z,5.03
2023-05-14T12:00:58.598Z,4.65
2023-05-14T12:03:30.136Z,4.85
2023-05-14T12:05:58.071Z,4.85
2023-05-14T12:08:28.362Z,4.55
2023-05-14T12:10:55.097Z,5.00
2023-05-14T12:13:21.865Z,4.97
2023-05-14T12:15:53.591Z,4.63
2023-05-14T12:18:24.760Z,5.43
2023-05-14T12:20:52.102Z,5.45
2023-05-14T12:23:44.795Z,6.40
2023-05-14T12:26:12.294Z,5.20
2023-05-14T12:28:42.999Z,5.22
2023-05-14T12:31:09.506Z,5.00
2023-05-14T12:33:35.858Z,5.45
2023-05-14T12:36:19.848Z,5.05
2023-05-14T12:38:48.284Z,5.30
2023-05-14T12:41:14.607Z,6.57
2023-05-14T12:43:42.982Z,4.47
2023-05-14T12:46:09.340Z,5.18
2023-05-14T12:48:35.845Z,5.18
2023-05-14T12:51:02.204Z,5.78
2023-05-14T12:53:28.587Z,5.25
2023-05-14T12:55:54.914Z,5.07
2023-05-14T12:58:21.195Z,4.63
2023-05-14T13:00:47.654Z,5.80
2023-05-14T13:03:14.192Z,5.10
2023-05-14T13:05:40.652Z,5.20
2023-05-14T13:08:06.981Z,5.05
2023-05-14T13:10:33.315Z,4.82
2023-05-14T13:12:59.632Z,5.22
2023-05-14T13:15:26.239Z,4.28
2023-05-14T13:17:55.467Z,4.85
2023-05-14T13:20:23.576Z,4.97
2023-05-14T13:22:49.900Z,5.10
2023-05-14T13:25:16.429Z,4.85
2023-05-14T13:27:42.730Z,5.05
2023-05-14T13:30:09.186Z,4.97
2023-05-14T13:32:35.538Z,4.93
2023-05-14T13:35:01.950Z,5.03
2023-05-14T13:37:28.358Z,4.78
2023-05-14T13:39:54.770Z,5.88
2023-05-14T13:42:21.374Z,4.82
2023-05-14T13:44:47.708Z,5.57
2023-05-14T13:47:14.091Z,4.75
2023-05-14T13:49:40.671Z,4.53
2023-05-14T13:52:07.012Z,5.25
2023-05-14T13:54:33.333Z,5.05
2023-05-14T13:56:59.771Z,4.80
2023-05-14T13:59:26.253Z,5.28
2023-05-14T14:01:52.749Z,5.55
2023-05-14T14:04:19.919Z,5.57
2023-05-14T14:06:46.309Z,4.80
2023-05-14T14:09:13.700Z,5.53
2023-05-14T14:11:41.012Z,5.60
2023-05-14T14:14:07.325Z,5.20
2023-05-14T14:16:33.717Z,5.30
2023-05-14T14:19:00.050Z,4.97
2023-05-14T14:21:26.413Z,5.03
2023-05-14T14:23:53.501Z,4.88
2023-05-14T14:26:19.805Z,4.28
2023-05-14T14:28:46.404Z,5.03
2023-05-14T14:31:13.101Z,4.40
2023-05-14T14:33:39.449Z,4.75
2023-05-14T14:36:06.090Z,4.53
2023-05-14T14:38:32.386Z,4.95
2023-05-14T14:40:58.870Z,4.22
2023-05-14T14:43:25.188Z,4.13
2023-05-14T14:45:51.560Z,5.18
2023-05-14T14:48:28.429Z,4.07
2023-05-14T14:50:55.345Z,4.75
2023-05-14T14:53:22.418Z,5.05
2023-05-14T14:55:49.055Z,5.03
2023-05-14T14:58:15.407Z,4.28
2023-05-14T15:00:41.931Z,4.43
2023-05-14T15:03:09.828Z,4.05
2023-05-14T15:05:37.476Z,4.70
2023-05-14T15:08:05.287Z,5.40
2023-05-14T15:10:31.842Z,4.28
2023-05-14T15:12:59.452Z,4.25
2023-05-14T15:15:26.205Z,4.47
2023-05-14T15:17:52.713Z,5.07
2023-05-14T15:20:19.412Z,4.80
2023-05-14T15:22:45.885Z,4.35
2023-05-14T15:25:12.206Z,3.72
2023-05-14T15:27:38.594Z,4.28
2023-05-14T15:30:06.290Z,4.50
2023-05-14T15:32:32.790Z,4.30
2023-05-14T15:35:00.664Z,4.43
2023-05-14T15:37:27.011Z,4.63
2023-05-14T15:39:53.444Z,4.93
2023-05-14T15:42:20.916Z,11.27
2023-05-14T15:44:47.312Z,4.38
2023-05-14T15:47:13.681Z,4.57
2023-05-14T15:49:40.110Z,3.72
2023-05-14T15:52:06.524Z,4.78
2023-05-14T15:54:32.883Z,4.65
2023-05-14T15:56:59.176Z,4.40
2023-05-14T15:59:25.486Z,4.60
2023-05-14T16:01:51.946Z,5.45
2023-05-14T16:04:18.361Z,4.72
2023-05-14T16:06:45.252Z,5.35
2023-05-14T16:09:13.008Z,5.28
2023-05-14T16:11:39.372Z,4.85
2023-05-14T16:14:05.908Z,4.75
2023-05-14T16:16:32.314Z,5.43
2023-05-14T16:19:00.343Z,5.47
2023-05-14T16:21:27.264Z,5.68
2023-05-14T16:23:53.590Z,5.43
2023-05-14T16:26:19.942Z,4.85
2023-05-14T16:28:46.234Z,5.85
2023-05-14T16:31:13.729Z,4.55
2023-05-14T16:33:40.066Z,4.93
2023-05-14T16:36:07.110Z,4.55
2023-05-14T16:38:33.490Z,5.60
2023-05-14T16:41:00.319Z,4.95
2023-05-14T16:43:26.669Z,4.68
2023-05-14T16:45:53.232Z,5.28
2023-05-14T16:48:19.622Z,4.93
2023-05-14T16:50:45.954Z,4.43
2023-05-14T16:53:13.601Z,4.63
2023-05-14T16:55:39.917Z,4.45
2023-05-14T16:58:15.006Z,4.80
2023-05-14T17:00:41.385Z,5.30
2023-05-14T17:03:08.780Z,5.57
2023-05-14T17:05:35.277Z,4.63
2023-05-14T17:08:01.908Z,4.68
2023-05-14T17:10:28.369Z,4.80
2023-05-14T17:12:54.698Z,5.70
2023-05-14T17:15:21.038Z,6.10
2023-05-14T17:17:48.459Z,6.32
2023-05-14T17:20:16.798Z,6.32
2023-05-14T17:22:43.622Z,6.80
2023-05-14T17:25:10.174Z,7.80
2023-05-14T17:27:36.554Z,6.68
2023-05-14T17:30:03.588Z,6.82
2023-05-14T17:32:31.210Z,6.15
2023-05-14T17:34:59.228Z,7.63
2023-05-14T17:37:26.292Z,6.63
2023-05-14T17:39:52.662Z,6.07
2023-05-14T17:42:19.014Z,6.82
2023-05-14T17:44:45.569Z,6.55
2023-05-14T17:47:12.104Z,7.38
2023-05-14T17:49:38.388Z,6.45
2023-05-14T17:52:04.984Z,7.47
2023-05-14T17:54:31.289Z,6.60
2023-05-14T17:56:57.727Z,6.45
2023-05-14T17:59:24.494Z,6.75
2023-05-14T18:01:50.967Z,6.78
2023-05-14T18:04:17.350Z,6.45
2023-05-14T18:06:44.515Z,7.40
2023-05-14T18:09:10.930Z,5.65
2023-05-14T18:11:37.288Z,5.65
2023-05-14T18:14:03.632Z,5.25
2023-05-14T18:16:30.629Z,5.10
2023-05-14T18:18:57.141Z,5.38
2023-05-14T18:21:23.629Z,5.10
2023-05-14T18:23:52.624Z,4.80
2023-05-14T18:26:19.067Z,5.82
2023-05-14T18:28:45.485Z,5.40
2023-05-14T18:31:11.874Z,5.80
2023-05-14T18:33:38.683Z,6.32
2023-05-14T18:36:05.195Z,5.97
2023-05-14T18:38:31.587Z,5.97
2023-05-14T18:40:57.960Z,5.22
2023-05-14T18:43:26.140Z,5.75
2023-05-14T18:45:54.648Z,5.75
2023-05-14T18:48:21.114Z,5.43
2023-05-14T18:50:47.488Z,5.30
2023-05-14T18:53:13.850Z,6.35
2023-05-14T18:55:40.445Z,5.40
2023-05-14T18:58:06.960Z,5.95
2023-05-14T19:00:33.385Z,5.40
2023-05-14T19:02:59.799Z,6.30
2023-05-14T19:05:26.471Z,7.53
2023-05-14T19:07:53.010Z,6.65
2023-05-14T19:10:19.726Z,7.75
2023-05-14T19:12:46.917Z,7.47
2023-05-14T19:15:16.843Z,7.50
2023-05-14T19:17:43.429Z,8.77
2023-05-14T19:20:10.264Z,8.70
2023-05-14T19:22:37.070Z,8.30
2023-05-14T19:25:04.397Z,7.90
2023-05-14T19:27:31.755Z,7.60
2023-05-14T19:29:58.192Z,6.35
2023-05-14T19:32:25.090Z,7.25
2023-05-14T19:34:53.296Z,7.47
2023-05-14T19:37:23.564Z,7.30
2023-05-14T19:39:50.293Z,7.32
2023-05-14T19:42:17.391Z,7.80
2023-05-14T19:44:44.317Z,7.38
2023-05-14T19:47:11.370Z,7.60
2023-05-14T19:49:39.450Z,7.88
2023-05-14T19:52:06.060Z,8.75
2023-05-14T19:54:32.424Z,8.32
2023-05-14T19:56:58.796Z,8.88
2023-05-14T19:59:25.182Z,9.50
2023-05-14T20:01:51.763Z,9.23
2023-05-14T20:04:19.749Z,9.05
2023-05-14T20:06:47.193Z,10.32
2023-05-14T20:09:13.734Z,10.73
2023-05-14T20:11:40.084Z,10.38
2023-05-14T20:14:06.416Z,9.82
2023-05-14T20:16:32.695Z,9.68
2023-05-14T20:18:59.139Z,10.18
2023-05-14T20:21:25.603Z,9.70
2023-05-14T20:23:52.249Z,9.88
2023-05-14T20:26:19.975Z,9.60
2023-05-14T20:28:49.007Z,10.15
2023-05-14T20:31:15.401Z,10.07
2023-05-14T20:33:41.725Z,9.32
2023-05-14T20:36:08.057Z,10.30
2023-05-14T20:38:34.952Z,9.45
2023-05-14T20:41:04.075Z,9.18
2023-05-14T20:43:35.322Z,9.57
2023-05-14T20:46:02.098Z,9.73
2023-05-14T20:48:28.464Z,9.85
2023-05-14T20:50:54.828Z,10.25
2023-05-14T20:53:21.281Z,10.52
2023-05-14T20:55:47.929Z,9.98
2023-05-14T20:58:15.861Z,10.68
2023-05-14T21:00:44.285Z,10.82
2023-05-14T21:03:13.293Z,11.30
2023-05-14T21:05:41.486Z,11.02
2023-05-14T21:08:07.868Z,10.60
2023-05-14T21:10:34.233Z,11.75
2023-05-14T21:13:00.805Z,11.77
2023-05-14T21:15:27.448Z,10.15
2023-05-14T21:17:54.206Z,10.93
2023-05-14T21:20:20.732Z,11.60
2023-05-14T21:22:47.023Z,12.60
2023-05-14T21:25:13.400Z,11.73
2023-05-14T21:27:39.717Z,11.65
2023-05-14T21:30:06.482Z,11.68
2023-05-14T21:32:32.879Z,11.05
2023-05-14T21:34:59.358Z,11.57
2023-05-14T21:37:26.170Z,12.75
2023-05-14T21:39:52.537Z,11.50
2023-05-14T21:42:21.248Z,10.77
2023-05-14T21:44:47.754Z,11.05
2023-05-14T21:47:14.124Z,11.80
2023-05-14T21:49:40.452Z,11.80
2023-05-14T21:52:06.873Z,12.23
2023-05-14T21:54:33.218Z,12.18
2023-05-14T21:56:59.663Z,11.00
2023-05-14T21:59:29.073Z,12.15
2023-05-14T22:02:06.884Z,12.35
2023-05-14T22:04:34.017Z,12.13
2023-05-14T22:07:01.984Z,11.77
2023-05-14T22:09:28.754Z,12.38
2023-05-14T22:11:55.108Z,11.80
2023-05-14T22:14:21.473Z,12.02
2023-05-14T22:16:48.064Z,12.48
2023-05-14T22:19:15.766Z,12.32
2023-05-14T22:21:42.189Z,13.27
2023-05-14T22:24:08.568Z,12.13
2023-05-14T22:26:34.882Z,14.63
2023-05-14T22:29:01.167Z,13.60
2023-05-14T22:31:27.496Z,14.18
2023-05-14T22:33:53.896Z,14.10
2023-05-14T22:36:20.414Z,14.77
2023-05-14T22:38:46.743Z,14.43
2023-05-14T22:41:13.167Z,14.70
2023-05-14T22:43:39.656Z,14.57
2023-05-14T22:46:06.333Z,13.80
2023-05-14T22:48:32.743Z,13.70
2023-05-14T22:50:59.035Z,13.88
2023-05-14T22:53:25.580Z,14.32
2023-05-14T22:55:51.927Z,14.88
2023-05-14T22:58:18.333Z,16.83
2023-05-14T23:00:44.703Z,14.38
2023-05-14T23:03:11.008Z,15.60
2023-05-14T23:05:37.389Z,15.63
2023-05-14T23:08:03.710Z,16.02
2023-05-14T23:10:30.307Z,16.38
2023-05-14T23:12:56.699Z,16.52
2023-05-14T23:15:23.485Z,15.73
2023-05-14T23:17:49.997Z,16.20
2023-05-14T23:20:16.433Z,16.38
2023-05-14T23:22:42.778Z,16.02
2023-05-14T23:25:09.377Z,15.27
2023-05-14T23:27:35.813Z,15.20
2023-05-14T23:30:02.913Z,16.40
2023-05-14T23:32:29.298Z,16.67
2023-05-14T23:34:55.762Z,16.75
2023-05-14T23:37:22.146Z,17.02
2023-05-14T23:39:48.615Z,16.92
2023-05-14T23:42:14.971Z,17.38
2023-05-14T23:44:41.353Z,16.73
2023-05-14T23:47:08.688Z,16.75
2023-05-14T23:49:35.423Z,18.08
2023-05-14T23:52:02.192Z,17.25
2023-05-14T23:54:28.508Z,18.10
2023-05-14T23:56:54.837Z,17.90
2023-05-14T23:59:22.009Z,18.50
